createdAt,value
2018-11-01T00:02:15.771Z,64.80
2018-11-01T00:04:45.741Z,65.10
2018-11-01T00:07:15.668Z,65.30
2018-11-01T00:09:45.586Z,65.40
2018-11-01T00:12:15.540Z,65.90
2018-11-01T00:14:45.434Z,67.00
2018-11-01T00:17:15.692Z,67.00
2018-11-01T00:19:45.660Z,67.00
2018-11-01T00:22:15.583Z,67.00
2018-11-01T00:24:45.556Z,69.00
2018-11-01T00:27:15.446Z,69.00
2018-11-01T00:29:45.528Z,69.50
2018-11-01T00:32:15.449Z,70.10
2018-11-01T00:34:45.476Z,70.10
2018-11-01T00:37:16.260Z,70.40
2018-11-01T00:39:46.246Z,70.20
2018-11-01T00:42:16.226Z,69.80
2018-11-01T00:44:46.252Z,70.10
2018-11-01T00:47:16.192Z,70.60
2018-11-01T00:49:46.135Z,70.70
2018-11-01T00:52:16.161Z,71.20
2018-11-01T00:54:46.117Z,71.70
2018-11-01T00:57:15.968Z,70.50
2018-11-01T00:59:45.904Z,70.20
2018-11-01T01:02:16.377Z,70.00
2018-11-01T01:04:46.362Z,70.00
2018-11-01T01:07:16.272Z,69.90
2018-11-01T01:09:46.228Z,71.60
2018-11-01T01:12:16.262Z,71.80
2018-11-01T01:14:46.182Z,71.50
2018-11-01T01:17:16.068Z,71.50
2018-11-01T01:19:46.369Z,71.50
2018-11-01T01:22:16.254Z,71.50
2018-11-01T01:24:46.637Z,71.40
2018-11-01T01:27:16.525Z,71.70
2018-11-01T01:29:46.493Z,71.80
2018-11-01T01:32:16.463Z,71.60
2018-11-01T01:34:46.703Z,71.60
2018-11-01T01:37:17.093Z,71.50
2018-11-01T01:39:47.017Z,71.60
2018-11-01T01:42:16.995Z,72.10
2018-11-01T01:44:46.897Z,72.20
2018-11-01T01:47:16.800Z,72.50
2018-11-01T01:49:46.741Z,72.90
2018-11-01T01:52:16.730Z,73.00
2018-11-01T01:54:46.620Z,73.00
2018-11-01T01:57:17.103Z,72.70
2018-11-01T01:59:47.169Z,72.40
2018-11-01T02:02:17.530Z,71.70
2018-11-01T02:04:47.450Z,71.50
2018-11-01T02:07:17.596Z,71.70
2018-11-01T02:09:47.584Z,71.90
2018-11-01T02:12:17.472Z,71.80
2018-11-01T02:14:47.442Z,71.70
2018-11-01T02:17:17.376Z,71.30
2018-11-01T02:19:47.292Z,71.30
2018-11-01T02:22:17.187Z,71.90
2018-11-01T02:24:47.130Z,71.90
2018-11-01T02:27:17.217Z,72.10
2018-11-01T02:29:47.145Z,72.20
2018-11-01T02:32:17.104Z,72.80
2018-11-01T02:34:47.092Z,73.70
2018-11-01T02:37:17.028Z,73.80
2018-11-01T02:39:46.921Z,73.90
2018-11-01T02:42:23.221Z,74.60
2018-11-01T02:44:53.247Z,74.60
2018-11-01T02:47:23.142Z,74.60
2018-11-01T02:49:53.104Z,74.70
2018-11-01T02:52:23.412Z,74.70
2018-11-01T02:54:53.540Z,74.30
2018-11-01T02:57:23.528Z,74.40
2018-11-01T02:59:53.553Z,74.70
2018-11-01T03:02:23.413Z,75.20
2018-11-01T03:04:53.333Z,75.90
2018-11-01T03:07:23.364Z,75.90
2018-11-01T03:09:53.234Z,75.80
2018-11-01T03:12:23.137Z,75.90
2018-11-01T03:14:53.059Z,75.90
2018-11-01T03:17:23.045Z,75.90
2018-11-01T03:19:52.966Z,75.90
2018-11-01T03:22:22.957Z,75.90
2018-11-01T03:24:52.861Z,76.00
2018-11-01T03:27:22.813Z,76.40
2018-11-01T03:29:52.754Z,76.70
2018-11-01T03:32:22.730Z,77.30
2018-11-01T03:34:52.689Z,77.60
2018-11-01T03:37:22.640Z,78.30
2018-11-01T03:39:52.686Z,78.80
2018-11-01T03:42:22.586Z,78.40
2018-11-01T03:44:52.553Z,77.90
2018-11-01T03:47:22.450Z,77.80
2018-11-01T03:49:52.341Z,77.30
2018-11-01T03:52:23.350Z,77.60
2018-11-01T03:54:53.374Z,78.00
2018-11-01T03:57:24.223Z,77.50
2018-11-01T03:59:54.216Z,77.30
2018-11-01T04:02:24.144Z,77.80
2018-11-01T04:04:54.093Z,78.50
2018-11-01T04:07:24.138Z,78.50
2018-11-01T04:09:54.125Z,79.30
2018-11-01T04:12:24.024Z,79.90
2018-11-01T04:14:54.021Z,79.50
2018-11-01T04:17:23.901Z,79.40
2018-11-01T04:19:53.857Z,79.10
2018-11-01T04:22:23.777Z,79.00
2018-11-01T04:24:53.730Z,79.10
2018-11-01T04:27:23.745Z,79.00
2018-11-01T04:29:53.718Z,79.10
2018-11-01T04:32:24.171Z,79.00
2018-11-01T04:34:55.026Z,79.00
2018-11-01T04:37:25.542Z,78.70
2018-11-01T04:39:55.419Z,78.60
2018-11-01T04:42:25.322Z,78.80
2018-11-01T04:44:55.308Z,79.30
2018-11-01T04:47:25.224Z,79.10
2018-11-01T04:49:55.042Z,78.60
2018-11-01T04:52:24.953Z,78.50
2018-11-01T04:54:54.854Z,78.10
2018-11-01T04:57:24.864Z,77.90
2018-11-01T04:59:54.774Z,77.90
2018-11-01T05:02:24.721Z,77.80
2018-11-01T05:04:54.694Z,77.80
2018-11-01T05:07:24.576Z,77.70
2018-11-01T05:09:54.501Z,77.70
2018-11-01T05:12:24.443Z,79.60
2018-11-01T05:14:54.348Z,80.70
2018-11-01T05:17:24.322Z,81.10
2018-11-01T05:19:54.333Z,81.40
2018-11-01T05:22:24.234Z,81.80
2018-11-01T05:24:54.150Z,82.30
2018-11-01T05:27:24.101Z,82.80
2018-11-01T05:29:54.182Z,83.20
2018-11-01T05:32:24.113Z,83.10
2018-11-01T05:34:54.033Z,82.90
2018-11-01T05:37:23.937Z,82.40
2018-11-01T05:39:53.845Z,82.00
2018-11-01T05:42:23.804Z,81.40
2018-11-01T05:44:53.712Z,80.50
2018-11-01T05:47:23.682Z,80.40
2018-11-01T05:49:54.206Z,80.20
2018-11-01T05:52:24.642Z,80.40
2018-11-01T05:54:54.624Z,80.40
2018-11-01T05:57:24.614Z,80.10
2018-11-01T05:59:54.735Z,79.70
2018-11-01T06:02:28.684Z,79.60
2018-11-01T06:04:58.588Z,79.30
2018-11-01T06:07:35.881Z,79.00
2018-11-01T06:10:06.051Z,78.70
2018-11-01T06:12:36.385Z,78.60
2018-11-01T06:15:07.935Z,78.90
2018-11-01T06:17:37.916Z,80.30
2018-11-01T06:20:09.233Z,82.90
2018-11-01T06:22:39.176Z,83.80
2018-11-01T06:25:09.745Z,84.50
2018-11-01T06:27:39.637Z,84.80
2018-11-01T06:30:13.966Z,84.70
2018-11-01T06:32:44.836Z,84.80
2018-11-01T06:35:24.223Z,85.90
2018-11-01T06:37:54.136Z,85.80
2018-11-01T06:40:24.070Z,86.00
2018-11-01T06:42:53.982Z,86.00
2018-11-01T06:45:23.889Z,86.30
2018-11-01T06:47:53.808Z,86.60
2018-11-01T06:50:23.744Z,86.80
2018-11-01T06:52:53.684Z,86.70
2018-11-01T06:55:23.604Z,86.90
2018-11-01T06:57:53.685Z,86.40
2018-11-01T07:00:23.595Z,86.10
2018-11-01T07:02:53.900Z,86.00
2018-11-01T07:05:23.846Z,85.30
2018-11-01T07:07:53.817Z,85.40
2018-11-01T07:10:23.800Z,85.50
2018-11-01T07:12:53.693Z,84.70
2018-11-01T07:15:23.777Z,83.30
2018-11-01T07:17:53.672Z,82.80
2018-11-01T07:20:23.645Z,83.10
2018-11-01T07:22:53.575Z,83.30
2018-11-01T07:25:23.579Z,83.40
2018-11-01T07:27:53.458Z,83.20
2018-11-01T07:30:23.420Z,82.40
2018-11-01T07:32:53.364Z,81.80
2018-11-01T07:35:23.352Z,81.40
2018-11-01T07:37:53.321Z,81.40
2018-11-01T07:40:23.816Z,81.30
2018-11-01T07:42:53.732Z,81.00
2018-11-01T07:45:23.750Z,81.00
2018-11-01T07:47:53.724Z,80.00
2018-11-01T07:50:23.596Z,79.60
2018-11-01T07:52:53.656Z,79.70
2018-11-01T07:55:23.496Z,80.00
2018-11-01T07:57:53.429Z,80.90
2018-11-01T08:00:23.381Z,77.70
2018-11-01T08:02:53.268Z,76.20
2018-11-01T08:05:23.165Z,74.60
2018-11-01T08:07:53.300Z,74.50
2018-11-01T08:10:23.200Z,73.30
2018-11-01T08:12:53.204Z,72.80
2018-11-01T08:15:23.157Z,71.10
2018-11-01T08:17:53.196Z,69.80
2018-11-01T08:20:23.393Z,69.10
2018-11-01T08:22:53.085Z,69.10
2018-11-01T08:25:23.035Z,69.20
2018-11-01T08:27:52.974Z,70.10
2018-11-01T08:30:22.853Z,70.00
2018-11-01T08:32:52.882Z,71.00
2018-11-01T08:35:22.769Z,72.00
2018-11-01T08:37:52.721Z,70.40
2018-11-01T08:40:22.609Z,70.30
2018-11-01T08:42:52.549Z,71.30
2018-11-01T08:45:22.780Z,71.20
2018-11-01T08:47:52.749Z,70.20
2018-11-01T08:50:22.675Z,69.40
2018-11-01T08:52:52.605Z,69.60
2018-11-01T08:55:22.496Z,68.30
2018-11-01T08:57:52.392Z,66.80
2018-11-01T09:00:22.292Z,66.20
2018-11-01T09:02:52.217Z,67.10
2018-11-01T09:05:22.145Z,67.60
2018-11-01T09:07:52.095Z,67.50
2018-11-01T09:10:22.000Z,66.80
2018-11-01T09:12:51.871Z,65.40
2018-11-01T09:15:21.884Z,64.60
2018-11-01T09:17:51.901Z,63.80
2018-11-01T09:20:21.870Z,62.60
2018-11-01T09:22:51.817Z,62.20
2018-11-01T09:25:21.746Z,59.80
2018-11-01T09:27:51.673Z,58.40
2018-11-01T09:30:21.568Z,57.50
2018-11-01T09:32:51.509Z,57.10
2018-11-01T09:35:21.361Z,56.50
2018-11-01T09:37:51.247Z,55.40
2018-11-01T09:40:21.133Z,54.40
2018-11-01T09:42:51.335Z,53.90
2018-11-01T09:45:21.277Z,54.60
2018-11-01T09:47:51.434Z,54.70
2018-11-01T09:50:21.153Z,54.60
2018-11-01T09:52:51.067Z,55.00
2018-11-01T09:55:21.077Z,55.50
2018-11-01T09:57:50.962Z,55.80
2018-11-01T10:00:21.166Z,55.50
2018-11-01T10:02:51.200Z,56.00
2018-11-01T10:05:21.353Z,56.00
2018-11-01T10:07:51.269Z,56.10
2018-11-01T10:10:21.230Z,56.00
2018-11-01T10:12:51.124Z,56.40
2018-11-01T10:15:21.365Z,56.60
2018-11-01T10:17:51.599Z,56.00
2018-11-01T10:20:21.085Z,56.10
2018-11-01T10:22:51.017Z,56.90
2018-11-01T10:25:21.095Z,57.00
2018-11-01T10:27:51.247Z,56.40
2018-11-01T10:30:21.753Z,55.60
2018-11-01T10:32:51.656Z,55.10
2018-11-01T10:35:21.657Z,53.40
2018-11-01T10:37:51.532Z,53.30
2018-11-01T10:40:22.059Z,53.50
2018-11-01T10:42:52.036Z,53.30
2018-11-01T10:45:21.996Z,53.30
2018-11-01T10:47:51.953Z,53.00
2018-11-01T10:50:21.885Z,52.70
2018-11-01T10:52:51.806Z,52.60
2018-11-01T10:55:21.790Z,52.00
2018-11-01T10:57:51.780Z,52.50
2018-11-01T11:01:28.888Z,52.60
2018-11-01T11:03:58.823Z,52.10
2018-11-01T11:06:28.846Z,52.70
2018-11-01T11:08:58.730Z,52.40
2018-11-01T11:11:28.736Z,52.90
2018-11-01T11:13:58.663Z,52.00
2018-11-01T11:16:28.581Z,51.80
2018-11-01T11:18:58.498Z,51.60
2018-11-01T11:21:28.493Z,51.70
2018-11-01T11:23:58.420Z,52.90
2018-11-01T11:26:28.342Z,52.10
2018-11-01T11:28:58.485Z,51.80
2018-11-01T11:31:28.373Z,52.10
2018-11-01T11:33:58.360Z,52.70
2018-11-01T11:36:28.278Z,52.30
2018-11-01T11:38:58.196Z,52.60
2018-11-01T11:41:28.076Z,52.30
2018-11-01T11:43:57.964Z,52.40
2018-11-01T11:46:27.912Z,52.00
2018-11-01T11:48:57.795Z,52.60
2018-11-01T11:51:27.850Z,52.90
2018-11-01T11:53:57.693Z,53.30
2018-11-01T11:56:27.641Z,53.50
2018-11-01T11:58:57.566Z,53.00
2018-11-01T12:01:27.514Z,53.80
2018-11-01T12:03:57.459Z,53.80
2018-11-01T12:06:27.498Z,53.80
2018-11-01T12:08:57.395Z,53.80
2018-11-01T12:11:27.313Z,53.80
2018-11-01T12:13:57.393Z,53.80
2018-11-01T12:16:27.248Z,53.90
2018-11-01T12:18:57.222Z,53.90
2018-11-01T12:21:27.192Z,54.50
2018-11-01T12:23:57.157Z,54.70
2018-11-01T12:26:27.065Z,54.40
2018-11-01T12:28:57.071Z,54.50
2018-11-01T12:31:26.958Z,54.80
2018-11-01T12:33:56.845Z,55.20
2018-11-01T12:36:26.752Z,55.50
2018-11-01T12:38:56.721Z,55.50
2018-11-01T12:41:27.086Z,55.50
2018-11-01T12:43:57.877Z,55.60
2018-11-01T12:46:27.825Z,55.50
2018-11-01T12:48:57.740Z,55.60
2018-11-01T12:51:27.857Z,55.70
2018-11-01T12:53:58.321Z,56.10
2018-11-01T12:56:28.293Z,56.30
2018-11-01T12:58:58.246Z,56.10
2018-11-01T13:01:28.320Z,56.10
2018-11-01T13:03:58.204Z,56.00
2018-11-01T13:06:28.444Z,55.80
2018-11-01T13:08:58.429Z,56.10
2018-11-01T13:11:28.380Z,56.30
2018-11-01T13:13:58.272Z,56.90
2018-11-01T13:16:28.313Z,57.10
2018-11-01T13:18:58.295Z,57.70
2018-11-01T13:21:28.273Z,58.30
2018-11-01T13:23:58.237Z,57.80
2018-11-01T13:26:28.328Z,58.40
2018-11-01T13:28:58.728Z,58.40
2018-11-01T13:31:28.681Z,58.40
2018-11-01T13:33:58.629Z,58.30
2018-11-01T13:36:28.602Z,58.30
2018-11-01T13:38:58.468Z,58.80
2018-11-01T13:41:28.413Z,58.60
2018-11-01T13:43:58.472Z,59.40
2018-11-01T13:46:28.558Z,60.20
2018-11-01T13:48:58.476Z,60.60
2018-11-01T13:51:28.387Z,61.10
2018-11-01T13:53:58.426Z,60.70
2018-11-01T13:56:28.445Z,60.40
2018-11-01T13:58:58.317Z,60.40
2018-11-01T14:01:28.578Z,60.90
2018-11-01T14:03:58.496Z,60.40
2018-11-01T14:06:28.462Z,60.40
2018-11-01T14:08:58.380Z,61.10
2018-11-01T14:11:28.248Z,61.90
2018-11-01T14:13:58.549Z,61.30
2018-11-01T14:16:28.110Z,61.00
2018-11-01T14:18:58.072Z,61.30
2018-11-01T14:21:28.105Z,61.10
2018-11-01T14:23:57.992Z,61.70
2018-11-01T14:26:27.914Z,62.70
2018-11-01T14:28:57.826Z,62.70
2018-11-01T14:31:27.744Z,62.70
2018-11-01T14:33:57.695Z,62.70
2018-11-01T14:36:27.658Z,62.60
2018-11-01T14:38:57.553Z,63.50
2018-11-01T14:41:27.471Z,63.80
2018-11-01T14:43:57.397Z,63.80
2018-11-01T14:46:27.357Z,63.40
2018-11-01T14:48:57.248Z,64.10
2018-11-01T14:51:27.144Z,64.30
2018-11-01T14:53:58.023Z,64.20
2018-11-01T14:56:28.674Z,64.70
2018-11-01T14:58:58.691Z,64.70
2018-11-01T15:01:27.258Z,65.70
2018-11-01T15:03:57.148Z,64.90
2018-11-01T15:06:27.067Z,64.90
2018-11-01T15:08:56.985Z,65.00
2018-11-01T15:11:27.000Z,65.40
2018-11-01T15:13:56.897Z,66.20
2018-11-01T15:16:26.801Z,67.10
2018-11-01T15:18:57.274Z,67.10
2018-11-01T15:21:27.280Z,67.00
2018-11-01T15:23:57.200Z,67.70
2018-11-01T15:26:27.138Z,70.00
2018-11-01T15:28:57.034Z,69.40
2018-11-01T15:31:27.020Z,70.10
2018-11-01T15:33:56.964Z,69.70
2018-11-01T15:36:27.089Z,69.90
2018-11-01T15:38:57.164Z,69.80
2018-11-01T15:41:27.109Z,69.70
2018-11-01T15:43:56.997Z,69.70
2018-11-01T15:46:26.900Z,69.70
2018-11-01T15:48:56.872Z,71.30
2018-11-01T15:51:27.004Z,71.60
2018-11-01T15:53:56.920Z,72.90
2018-11-01T15:56:26.895Z,72.40
2018-11-01T15:58:56.785Z,73.70
2018-11-01T16:01:26.741Z,73.80
2018-11-01T16:03:56.814Z,74.50
2018-11-01T16:06:27.027Z,75.00
2018-11-01T16:08:57.094Z,75.60
2018-11-01T16:11:27.146Z,76.30
2018-11-01T16:13:57.061Z,76.60
2018-11-01T16:16:26.962Z,76.80
2018-11-01T16:18:56.961Z,77.20
2018-11-01T16:21:26.994Z,77.40
2018-11-01T16:23:56.905Z,78.30
2018-11-01T16:26:26.800Z,77.70
2018-11-01T16:28:57.017Z,76.80
2018-11-01T16:31:26.967Z,77.40
2018-11-01T16:33:56.855Z,78.00
2018-11-01T16:36:26.793Z,77.00
2018-11-01T16:38:56.669Z,77.20
2018-11-01T16:41:26.584Z,77.50
2018-11-01T16:43:56.504Z,77.50
2018-11-01T16:46:26.388Z,77.60
2018-11-01T16:48:56.389Z,77.60
2018-11-01T16:51:26.763Z,77.60
2018-11-01T16:53:56.672Z,78.20
2018-11-01T16:56:26.698Z,77.90
2018-11-01T16:58:56.637Z,78.50
2018-11-01T17:01:26.601Z,79.00
2018-11-01T17:03:56.632Z,79.80
2018-11-01T17:06:26.561Z,79.70
2018-11-01T17:08:56.476Z,79.80
2018-11-01T17:11:26.502Z,79.80
2018-11-01T17:13:56.478Z,79.70
2018-11-01T17:16:26.412Z,80.80
2018-11-01T17:18:56.311Z,80.60
2018-11-01T17:21:26.305Z,80.70
2018-11-01T17:23:56.261Z,80.40
2018-11-01T17:26:26.225Z,79.70
2018-11-01T17:28:56.240Z,79.80
2018-11-01T17:31:26.174Z,79.90
2018-11-01T17:33:56.426Z,80.30
2018-11-01T17:36:26.424Z,80.90
2018-11-01T17:38:56.366Z,81.10
2018-11-01T17:41:26.314Z,80.80
2018-11-01T17:43:56.406Z,81.60
2018-11-01T17:46:26.241Z,81.80
2018-11-01T17:48:56.201Z,81.80
2018-11-01T17:51:26.437Z,82.70
2018-11-01T17:53:56.413Z,83.70
2018-11-01T17:56:26.306Z,83.50
2018-11-01T17:58:56.312Z,83.90
2018-11-01T18:01:26.208Z,84.20
2018-11-01T18:03:56.143Z,84.60
2018-11-01T18:06:26.149Z,84.10
2018-11-01T18:08:56.156Z,85.20
2018-11-01T18:11:26.062Z,84.80
2018-11-01T18:13:56.388Z,83.90
2018-11-01T18:16:26.312Z,84.20
2018-11-01T18:18:56.218Z,83.70
2018-11-01T18:21:26.161Z,84.00
2018-11-01T18:23:56.142Z,84.40
2018-11-01T18:26:26.217Z,84.10
2018-11-01T18:28:56.153Z,83.90
2018-11-01T18:31:26.092Z,84.50
2018-11-01T18:33:56.054Z,84.40
2018-11-01T18:36:26.149Z,85.00
2018-11-01T18:38:56.110Z,84.20
2018-11-01T18:41:26.173Z,84.60
2018-11-01T18:43:56.159Z,85.00
2018-11-01T18:46:26.105Z,84.60
2018-11-01T18:48:56.043Z,84.50
2018-11-01T18:51:25.984Z,84.30
2018-11-01T18:53:56.326Z,84.90
2018-11-01T18:56:26.193Z,85.70
2018-11-01T18:58:56.086Z,86.40
2018-11-01T19:01:26.120Z,87.20
2018-11-01T19:03:56.006Z,87.00
2018-11-01T19:06:25.933Z,86.40
2018-11-01T19:08:55.827Z,86.20
2018-11-01T19:11:26.068Z,85.80
2018-11-01T19:13:56.023Z,86.00
2018-11-01T19:16:25.913Z,85.70
2018-11-01T19:18:55.801Z,85.40
2018-11-01T19:21:25.795Z,85.70
2018-11-01T19:23:55.758Z,86.90
2018-11-01T19:26:25.706Z,87.30
2018-11-01T19:28:55.737Z,87.30
2018-11-01T19:31:25.637Z,87.00
2018-11-01T19:33:55.663Z,86.60
2018-11-01T19:36:25.648Z,86.10
2018-11-01T19:38:55.567Z,85.50
2018-11-01T19:41:25.501Z,85.00
2018-11-01T19:43:55.469Z,84.70
2018-11-01T19:46:25.714Z,85.30
2018-11-01T19:48:55.700Z,85.00
2018-11-01T19:51:25.978Z,84.90
2018-11-01T19:53:55.998Z,84.90
2018-11-01T19:56:26.038Z,86.30
2018-11-01T19:58:55.949Z,86.40
2018-11-01T20:01:25.957Z,86.90
2018-11-01T20:03:56.107Z,87.00
2018-11-01T20:06:26.319Z,87.50
2018-11-01T20:08:57.021Z,88.60
2018-11-01T20:11:26.872Z,88.00
2018-11-01T20:13:56.847Z,88.60
2018-11-01T20:16:26.740Z,88.40
2018-11-01T20:18:56.714Z,88.70
2018-11-01T20:21:27.057Z,88.30
2018-11-01T20:23:56.992Z,88.80
2018-11-01T20:26:26.897Z,88.30
2018-11-01T20:28:57.040Z,87.80
2018-11-01T20:31:27.457Z,87.80
2018-11-01T20:33:57.192Z,87.30
2018-11-01T20:36:27.163Z,86.00
2018-11-01T20:38:57.113Z,85.40
2018-11-01T20:41:27.054Z,84.80
2018-11-01T20:43:57.012Z,84.30
2018-11-01T20:46:27.181Z,84.00
2018-11-01T20:48:57.116Z,84.30
2018-11-01T20:51:27.048Z,84.20
2018-11-01T20:53:56.941Z,83.80
2018-11-01T20:56:27.133Z,84.20
2018-11-01T20:58:57.072Z,83.50
2018-11-01T21:01:26.989Z,82.50
2018-11-01T21:03:57.272Z,82.10
2018-11-01T21:06:27.149Z,81.90
2018-11-01T21:08:57.112Z,81.70
2018-11-01T21:11:27.271Z,81.60
2018-11-01T21:13:57.089Z,81.10
2018-11-01T21:16:26.977Z,81.80
2018-11-01T21:18:56.891Z,80.60
2018-11-01T21:21:26.768Z,80.50
2018-11-01T21:23:56.717Z,79.70
2018-11-01T21:26:26.624Z,79.30
2018-11-01T21:28:56.595Z,79.30
2018-11-01T21:31:26.541Z,79.80
2018-11-01T21:33:56.466Z,79.20
2018-11-01T21:36:26.801Z,79.70
2018-11-01T21:38:56.773Z,79.60
2018-11-01T21:41:26.939Z,79.20
2018-11-01T21:43:56.820Z,79.40
2018-11-01T21:46:26.732Z,79.20
2018-11-01T21:48:56.801Z,79.20
2018-11-01T21:51:26.709Z,79.20
2018-11-01T21:53:56.665Z,79.10
2018-11-01T21:56:26.662Z,79.10
2018-11-01T21:58:56.632Z,79.10
2018-11-01T22:01:26.543Z,79.10
2018-11-01T22:03:56.726Z,79.00
2018-11-01T22:06:26.648Z,78.80
2018-11-01T22:08:56.563Z,78.40
2018-11-01T22:11:26.469Z,78.30
2018-11-01T22:13:56.400Z,78.10
2018-11-01T22:16:26.302Z,78.20
2018-11-01T22:18:56.204Z,78.30
2018-11-01T22:21:26.255Z,78.20
2018-11-01T22:23:56.193Z,78.90
2018-11-01T22:26:26.133Z,78.90
2018-11-01T22:28:56.025Z,78.90
2018-11-01T22:31:26.040Z,78.60
2018-11-01T22:33:55.933Z,78.80
2018-11-01T22:36:25.862Z,79.20
2018-11-01T22:38:55.853Z,79.90
2018-11-01T22:41:26.446Z,79.80
2018-11-01T22:43:56.353Z,79.30
2018-11-01T22:46:26.310Z,79.70
2018-11-01T22:48:56.189Z,80.00
2018-11-01T22:51:26.105Z,79.80
2018-11-01T22:53:56.051Z,79.80
2018-11-01T22:56:25.945Z,79.80
2018-11-01T22:58:55.845Z,80.10
2018-11-01T23:01:25.770Z,79.80
2018-11-01T23:03:55.718Z,79.80
2018-11-01T23:06:25.629Z,79.60
2018-11-01T23:08:55.535Z,79.50
2018-11-01T23:11:25.717Z,79.70
2018-11-01T23:13:55.657Z,79.40
2018-11-01T23:16:25.568Z,79.10
2018-11-01T23:18:55.492Z,79.20
2018-11-01T23:21:25.473Z,78.70
2018-11-01T23:23:55.423Z,78.60
2018-11-01T23:26:25.471Z,78.90
2018-11-01T23:28:55.249Z,78.60
2018-11-01T23:31:25.207Z,78.50
2018-11-01T23:33:55.447Z,79.10
2018-11-01T23:36:24.547Z,79.70
2018-11-01T23:38:59.794Z,78.80
2018-11-01T23:41:35.219Z,79.40
2018-11-01T23:44:10.440Z,79.20
2018-11-01T23:46:45.979Z,79.20
2018-11-01T23:49:17.233Z,79.60
2018-11-01T23:51:52.557Z,80.00
2018-11-01T23:54:22.460Z,80.00
2018-11-01T23:56:52.381Z,80.30
2018-11-01T23:59:22.289Z,79.90
